createdAt,value
2023-02-14T00:03:06.495Z,0.30
2023-02-14T00:08:04.443Z,0.30
2023-02-14T00:13:03.861Z,0.20
2023-02-14T00:18:03.189Z,0.30
2023-02-14T00:23:06.306Z,0.20
2023-02-14T00:28:05.850Z,0.40
2023-02-14T00:33:03.924Z,0.30
2023-02-14T00:38:02.000Z,0.40
2023-02-14T00:43:00.087Z,0.30
2023-02-14T00:48:01.376Z,0.30
2023-02-14T00:52:59.354Z,0.30
2023-02-14T00:57:57.206Z,0.20
2023-02-14T01:02:55.333Z,0.30
2023-02-14T01:07:54.814Z,0.30
2023-02-14T01:12:55.565Z,0.30
2023-02-14T01:17:53.590Z,0.30
2023-02-14T01:22:52.478Z,0.30
2023-02-14T01:27:53.420Z,0.30
2023-02-14T01:32:51.422Z,0.30
2023-02-14T01:37:49.556Z,0.35
2023-02-14T01:42:47.546Z,0.25
2023-02-14T01:47:48.153Z,0.30
2023-02-14T01:52:48.805Z,0.30
2023-02-14T01:57:50.729Z,0.30
2023-02-14T02:02:52.070Z,0.30
2023-02-14T02:07:50.067Z,0.20
2023-02-14T02:12:49.305Z,0.30
2023-02-14T02:17:54.037Z,0.40
2023-02-14T02:23:08.254Z,0.30
2023-02-14T02:28:20.318Z,0.40
2023-02-14T02:33:36.889Z,0.30
2023-02-14T02:38:47.600Z,0.40
2023-02-14T02:43:50.719Z,0.30
2023-02-14T02:48:50.580Z,0.20
2023-02-14T02:53:53.029Z,0.25
2023-02-14T02:58:53.865Z,0.30
2023-02-14T03:04:12.466Z,0.40
2023-02-14T03:09:14.265Z,0.40
2023-02-14T03:14:18.665Z,0.30
2023-02-14T03:19:45.124Z,0.32
2023-02-14T03:24:50.195Z,0.20
2023-02-14T03:29:54.390Z,0.30
2023-02-14T03:34:54.378Z,0.40
2023-02-14T03:39:56.089Z,0.30
2023-02-14T03:44:55.992Z,0.40
2023-02-14T03:49:56.584Z,0.30
2023-02-14T03:54:56.878Z,0.30
2023-02-14T03:59:55.215Z,0.30
2023-02-14T04:04:54.209Z,0.30
2023-02-14T04:09:52.883Z,0.40
2023-02-14T04:14:52.302Z,0.40
2023-02-14T04:19:52.111Z,0.30
2023-02-14T04:24:50.206Z,0.38
2023-02-14T04:29:52.805Z,0.30
2023-02-14T04:34:50.852Z,0.35
2023-02-14T04:39:48.728Z,0.30
2023-02-14T04:44:48.361Z,0.30
2023-02-14T04:49:47.678Z,0.30
2023-02-14T04:54:45.684Z,0.30
2023-02-14T04:59:43.704Z,0.40
2023-02-14T05:04:43.586Z,0.35
2023-02-14T05:09:43.052Z,0.30
2023-02-14T05:14:45.630Z,0.38
2023-02-14T05:19:45.163Z,0.40
2023-02-14T05:24:44.571Z,0.38
2023-02-14T05:29:42.524Z,0.40
2023-02-14T05:34:40.548Z,0.50
2023-02-14T05:39:41.386Z,0.38
2023-02-14T05:44:43.781Z,0.40
2023-02-14T05:49:41.887Z,0.38
2023-02-14T05:54:40.001Z,0.30
2023-02-14T05:59:38.126Z,0.30
2023-02-14T06:04:38.052Z,0.40
2023-02-14T06:09:39.069Z,0.40
2023-02-14T06:14:41.745Z,0.30
2023-02-14T06:19:41.640Z,0.30
2023-02-14T06:24:39.749Z,0.40
2023-02-14T06:29:37.915Z,0.40
2023-02-14T06:34:36.125Z,0.40
2023-02-14T06:39:39.569Z,0.32
2023-02-14T06:44:37.682Z,0.30
2023-02-14T06:49:35.872Z,0.40
2023-02-14T06:54:35.535Z,0.40
2023-02-14T06:59:33.949Z,0.30
2023-02-14T07:04:34.014Z,0.40
2023-02-14T07:09:34.669Z,0.40
2023-02-14T07:14:34.170Z,0.40
2023-02-14T07:19:34.770Z,0.35
2023-02-14T07:24:32.912Z,0.40
2023-02-14T07:29:45.456Z,0.30
2023-02-14T07:34:43.784Z,0.30
2023-02-14T07:39:44.702Z,0.32
2023-02-14T07:44:45.924Z,0.30
2023-02-14T07:49:44.003Z,0.28
2023-02-14T07:54:42.118Z,0.30
2023-02-14T07:59:40.384Z,0.30
2023-02-14T08:04:43.160Z,0.30
2023-02-14T08:09:41.344Z,0.30
2023-02-14T08:14:39.677Z,0.22
2023-02-14T08:19:38.221Z,0.30
2023-02-14T08:24:37.654Z,0.30
2023-02-14T08:29:35.662Z,0.22
2023-02-14T08:34:34.721Z,0.20
2023-02-14T08:39:33.098Z,0.30
2023-02-14T08:44:32.926Z,0.20
2023-02-14T08:49:30.920Z,0.20
2023-02-14T08:54:29.045Z,0.30
2023-02-14T08:59:27.337Z,0.30
2023-02-14T09:04:27.142Z,0.20
2023-02-14T09:09:25.287Z,0.20
2023-02-14T09:14:24.751Z,0.20
2023-02-14T09:19:22.888Z,0.20
2023-02-14T09:24:25.462Z,0.30
2023-02-14T09:29:23.857Z,0.20
2023-02-14T09:34:22.114Z,0.20
2023-02-14T09:39:20.392Z,0.20
2023-02-14T09:44:26.089Z,0.20
2023-02-14T09:49:31.949Z,0.20
2023-02-14T09:54:34.815Z,0.20
2023-02-14T09:59:44.721Z,0.10
2023-02-14T10:04:46.182Z,0.20
2023-02-14T10:10:16.181Z,0.20
2023-02-14T10:15:19.630Z,0.20
2023-02-14T10:20:23.559Z,0.20
2023-02-14T10:25:29.756Z,0.20
2023-02-14T10:30:38.340Z,0.20
2023-02-14T10:35:44.056Z,0.23
2023-02-14T10:40:50.869Z,0.20
2023-02-14T10:45:56.356Z,0.20
2023-02-14T10:51:00.789Z,0.20
2023-02-14T10:56:02.687Z,0.20
2023-02-14T11:01:04.140Z,0.20
2023-02-14T11:06:02.996Z,0.20
2023-02-14T11:11:04.336Z,0.28
2023-02-14T11:16:05.195Z,0.20
2023-02-14T11:21:04.937Z,0.20
2023-02-14T11:26:04.166Z,0.20
2023-02-14T11:31:03.081Z,0.20
2023-02-14T11:36:04.097Z,0.30
2023-02-14T11:41:02.382Z,0.20
2023-02-14T11:46:09.304Z,0.30
2023-02-14T11:51:10.544Z,0.20
2023-02-14T11:56:13.148Z,0.30
2023-02-14T12:01:13.792Z,0.20
2023-02-14T12:06:14.127Z,0.30
2023-02-14T12:11:20.875Z,0.20
2023-02-14T12:16:23.008Z,0.30
2023-02-14T12:21:44.934Z,0.17
2023-02-14T12:26:49.823Z,0.20
2023-02-14T12:31:48.339Z,0.20
2023-02-14T12:37:02.329Z,0.22
2023-02-14T12:42:08.382Z,0.30
2023-02-14T12:47:14.616Z,0.30
2023-02-14T12:52:28.550Z,0.20
2023-02-14T12:57:35.033Z,0.30
2023-02-14T13:02:52.873Z,0.20
2023-02-14T13:07:58.048Z,0.20
2023-02-14T13:13:10.037Z,0.20
2023-02-14T13:18:09.843Z,0.20
2023-02-14T13:23:14.762Z,0.20
2023-02-14T13:28:16.381Z,0.20
2023-02-14T13:33:36.865Z,0.20
2023-02-14T13:38:47.478Z,0.20
2023-02-14T13:43:55.082Z,0.20
2023-02-14T13:48:57.931Z,0.20
2023-02-14T13:53:56.126Z,0.20
2023-02-14T13:58:58.178Z,0.20
2023-02-14T14:03:58.064Z,0.20
2023-02-14T14:08:57.340Z,0.20
2023-02-14T14:13:57.811Z,0.20
2023-02-14T14:18:57.526Z,0.20
2023-02-14T14:24:08.771Z,0.17
2023-02-14T14:29:21.559Z,0.10
2023-02-14T14:34:23.328Z,0.20
2023-02-14T14:39:35.209Z,0.20
2023-02-14T14:44:38.886Z,0.30
2023-02-14T14:49:45.985Z,0.20
2023-02-14T14:54:49.993Z,0.20
2023-02-14T14:59:51.092Z,0.17
2023-02-14T15:04:49.487Z,0.28
2023-02-14T15:09:55.837Z,0.20
2023-02-14T15:15:31.669Z,0.20
2023-02-14T15:21:12.674Z,0.20
2023-02-14T15:26:32.145Z,0.20
2023-02-14T15:31:36.733Z,0.20
2023-02-14T15:36:44.459Z,0.10
2023-02-14T15:42:24.365Z,0.20
2023-02-14T15:47:32.563Z,0.20
2023-02-14T15:52:53.682Z,0.20
2023-02-14T16:04:08.697Z,0.20
2023-02-14T16:09:30.543Z,0.28
2023-02-14T16:14:38.090Z,0.20
2023-02-14T16:19:39.159Z,0.20
2023-02-14T16:24:40.631Z,0.20
2023-02-14T16:29:43.166Z,0.20
2023-02-14T16:34:41.891Z,0.13
2023-02-14T16:39:55.722Z,0.20
2023-02-14T16:45:19.886Z,0.20
2023-02-14T16:50:18.452Z,0.30
2023-02-14T16:55:23.814Z,0.20
2023-02-14T17:00:57.569Z,0.20
2023-02-14T17:06:07.774Z,0.20
2023-02-14T17:16:28.318Z,0.10
2023-02-14T17:21:31.146Z,0.10
2023-02-14T17:26:29.651Z,0.20
2023-02-14T17:32:16.244Z,0.20
2023-02-14T17:37:29.519Z,0.20
2023-02-14T17:42:32.607Z,0.20
2023-02-14T17:47:36.801Z,0.17
2023-02-14T17:52:38.259Z,0.20
2023-02-14T17:57:39.770Z,0.20
2023-02-14T18:02:47.690Z,0.20
2023-02-14T18:07:46.214Z,0.20
2023-02-14T18:12:51.002Z,0.17
2023-02-14T18:23:11.420Z,0.20
2023-02-14T18:28:16.094Z,0.20
2023-02-14T18:33:25.719Z,0.20
2023-02-14T18:38:46.128Z,0.20
2023-02-14T18:43:56.704Z,0.20
2023-02-14T18:48:55.293Z,0.10
2023-02-14T18:54:00.974Z,0.20
2023-02-14T18:59:08.590Z,0.20
2023-02-14T19:04:19.976Z,0.20
2023-02-14T19:09:31.325Z,0.20
2023-02-14T19:14:43.777Z,0.20
2023-02-14T19:20:24.712Z,0.20
2023-02-14T19:30:44.766Z,0.20
2023-02-14T19:35:48.951Z,0.20
2023-02-14T19:41:08.263Z,0.20
2023-02-14T19:46:12.705Z,0.20
2023-02-14T19:51:22.868Z,0.30
2023-02-14T19:56:33.926Z,0.20
2023-02-14T20:01:39.746Z,0.20
2023-02-14T20:06:41.677Z,0.20
2023-02-14T20:11:50.272Z,0.20
2023-02-14T20:17:02.620Z,0.22
2023-02-14T20:22:04.308Z,0.20
2023-02-14T20:27:10.998Z,0.30
2023-02-14T20:32:14.212Z,0.30
2023-02-14T20:37:19.931Z,0.30
2023-02-14T20:42:19.364Z,0.30
2023-02-14T20:47:18.030Z,0.20
2023-02-14T20:52:18.125Z,0.20
2023-02-14T20:57:16.114Z,0.20
2023-02-14T21:02:16.054Z,0.30
2023-02-14T21:07:28.904Z,0.28
2023-02-14T21:12:30.692Z,0.30
2023-02-14T21:17:39.421Z,0.20
2023-02-14T21:22:54.281Z,0.20
2023-02-14T21:28:03.088Z,0.30
2023-02-14T21:33:24.443Z,0.22
2023-02-14T21:38:43.642Z,0.20
2023-02-14T21:43:42.854Z,0.30
2023-02-14T21:49:01.463Z,0.30
2023-02-14T21:54:00.543Z,0.35
2023-02-14T21:59:03.912Z,0.38
2023-02-14T22:04:04.088Z,0.20
2023-02-14T22:09:02.060Z,0.20
2023-02-14T22:14:00.384Z,0.30
2023-02-14T22:18:58.666Z,0.30
2023-02-14T22:23:58.132Z,0.38
2023-02-14T22:28:57.143Z,0.20
2023-02-14T22:33:55.337Z,0.40
2023-02-14T22:38:53.364Z,0.40
2023-02-14T22:43:53.286Z,0.40
2023-02-14T22:48:51.995Z,0.30
2023-02-14T22:53:50.760Z,0.35
2023-02-14T22:58:49.017Z,0.40
2023-02-14T23:03:49.576Z,0.38
2023-02-14T23:08:48.237Z,0.30
2023-02-14T23:14:04.181Z,0.40
2023-02-14T23:19:20.837Z,0.30
2023-02-14T23:24:18.954Z,0.30
2023-02-14T23:29:17.493Z,0.20
2023-02-14T23:34:16.961Z,0.35
2023-02-14T23:39:15.978Z,0.30
2023-02-14T23:44:14.052Z,0.40
2023-02-14T23:49:12.320Z,0.30
2023-02-14T23:54:11.618Z,0.35
2023-02-14T23:59:11.057Z,0.40
